createdAt,value
2019-05-20T11:20:27.558Z,53.00
2019-05-20T11:21:27.485Z,53.10
2019-05-20T11:22:27.496Z,52.20
2019-05-20T11:23:27.708Z,54.10
2019-05-20T11:24:27.542Z,52.00
2019-05-20T11:25:27.408Z,53.30
2019-05-20T11:26:28.143Z,50.00
2019-05-20T11:27:27.729Z,53.20
2019-05-20T11:28:27.674Z,51.50
2019-05-20T11:29:27.744Z,52.50
2019-05-20T11:30:27.648Z,52.60
2019-05-20T11:31:27.761Z,51.20
2019-05-20T11:32:27.774Z,49.70
2019-05-20T11:37:51.975Z,46.60
2019-05-20T11:38:51.793Z,46.40
2019-05-20T11:39:52.806Z,46.10
2019-05-20T11:40:51.985Z,47.60
2019-05-20T11:41:53.920Z,44.70
2019-05-20T11:42:51.897Z,48.90
2019-05-20T11:43:52.136Z,48.20
2019-05-20T11:44:53.246Z,46.80
2019-05-20T11:45:52.059Z,48.40
2019-05-20T11:46:51.923Z,44.00
2019-05-20T11:47:52.505Z,42.90
2019-05-20T11:48:51.818Z,42.30
2019-05-20T11:49:51.946Z,40.20
2019-05-20T11:50:52.290Z,37.10
2019-05-20T11:51:51.891Z,31.80
2019-05-20T11:52:51.639Z,35.80
2019-05-20T11:53:51.595Z,53.70
2019-05-20T11:54:52.291Z,51.00
2019-05-20T11:55:52.095Z,51.80
2019-05-20T11:56:51.663Z,51.30
2019-05-20T11:57:51.609Z,57.00
2019-05-20T11:58:51.718Z,54.90
2019-05-20T11:59:51.528Z,53.70
2019-05-20T12:00:51.648Z,67.90
2019-05-20T12:01:51.626Z,83.00
2019-05-20T12:02:51.531Z,78.80
2019-05-20T12:03:51.550Z,68.20
2019-05-20T12:04:51.487Z,77.80
2019-05-20T12:05:51.591Z,73.90
2019-05-20T12:06:51.771Z,70.60
2019-05-20T12:07:51.597Z,65.80
2019-05-20T12:08:51.471Z,67.00
2019-05-20T12:09:51.594Z,59.20
2019-05-20T12:10:51.517Z,50.20
2019-05-20T12:11:51.802Z,52.80
2019-05-20T12:12:51.511Z,23.80
